Armagh, Canada
Current Conditions -  °F | °C
As of 9:00 AM on Thursday 29 Jan 2015 (Local Time) from CYQB Reporting Station
Broken Clouds Broken Clouds  
Wind Chill:   Ceiling: 25000
Heat Index:   Visibility: 20mi
Dew Point: -2°   Wind: 2mph
Humidity: 72%   Direction: NA
Pressure: 30.29"   Gusts: NA
Location:  46.75°N, 70.58°W
Report Text: CYQB 291400Z VRB02KT 20SM BKN250 M15/M19 A3029 RMK CI5 SLP265
Loading
Personal Weather Stations






























Interactive Weather Map New forecast layout! Learn more

10-Day Weather Forecast

Advertisements
Track Severe Weather on mobile